Aérodrome :
LOGIN :

S'inscrire | Disclaimer

   EN    FR    IT 

 










Légende :    VFR   VFR Marginal   IFR   IFR Intensif   IFR Très Intensif
Visi : 
Plafond : 
>= 8 km
>= 3000ft
5 à 8 km
1000 à 3000 ft
1500m à 5 km
500 à 1000 ft
800 à 1500m
200 à 500 ft
< 800m
< 200 ft
Symboles :   Orages  Brouillard  Fortes neiges  Fortes précipitations  Vent > 20 kt
SIGMETs :   Divers  Orages  Givrage  Turbulence  Onde Orograph.  Cendres Volcan.






- Altitude de l'aérodrome : 778 ft
- Code IATA : BRQ


LKTB - Brno-Turany

DERNIER METAR :
  • 122030Z 31005KT 5000 -RA BR OVC007 05/05 Q1004 NOSIG

METARs EXPIRÉS :
  • 122000Z 30005KT 5000 -RA BR BKN007 OVC010 05/05 Q1004 NOSIG
  • 121930Z 34004KT 310V010 3300 -RA BR OVC007 06/06 Q1004 NOSIG
  • 121919Z 01002KT 8000 3500SE -RA BR OVC006 06/06 Q1004 RMK REG QNH 1000
  • 121900Z 33001KT 3300 -RA BR FEW006 OVC009 06/06 Q1004 TEMPO 5000 -RA BR
  • 121848Z VRB02KT 3100 -RA BR FEW006 OVC012 06/06 Q1004 RMK REG QNH 1000
  • 121832Z VRB01KT 3100 -RA BR FEW004 OVC008 06/06 Q1005 RMK REG QNH 1000
  • 121800Z VRB01KT 4000 -RA BR OVC011 06/06 Q1005 NOSIG

TAF TAF LKTB
Valide du 12 à 18h jusqu'au 14 à 00h UTC


121700Z 1218/1400 33006KT 3000 -RA BR OVC012
TEMPO 1218/1400 2000 RA BR OVC006
PROB30
TEMPO 1218/1400 1100 RA BR OVC003



MET'MAP, la Météo Aéronautique d'un coup d'oeil ! - Copyright ORBIFLY Décembre 2007 - Disclaimer

ORBIFLY MET'MAP TEAM :

Programmation & Développement : Alexandra Zaïnal
Conception & Développement : Baudouin d'Aumeries
Co-Programmation & Développement : Marc-Olivier Méhu
Soutien technique & logistique : Manuel Goepfert

Contact : metmap@orbifly.com




SOURCES & CREDITS :

   NOAA